Time;durP1;ratioP1;P1;durP2;ratioP2;P2;SDS_P1;SDS_P2;PMS_P1;PMS_P2;Temp;Humidity;BMP_temperature;BMP_pressure;BME280_temperature;BME280_humidity;BME280_pressure;Samples;Min_cycle;Max_cycle;Signal;HPM_P1;HPM_P2
2023/02/01 00:01:07;;;;;;;5.43;1.90;;;25.70;63.00;;;;;;5049527;28;20175;-73
2023/02/01 00:03:35;;;;;;;8.67;1.90;;;25.80;63.10;;;;;;5048927;28;20191;-72
2023/02/01 00:06:04;;;;;;;4.90;1.63;;;26.00;62.20;;;;;;5050639;28;20200;-68
2023/02/01 00:08:31;;;;;;;3.23;1.43;;;25.80;63.10;;;;;;5049667;28;20191;-68
2023/02/01 00:11:04;;;;;;;5.13;1.67;;;25.90;62.20;;;;;;5048850;28;20180;-70
2023/02/01 00:13:33;;;;;;;6.47;1.70;;;26.00;61.90;;;;;;5048254;28;20901;-68
2023/02/01 00:16:20;;;;;;;4.17;1.80;;;25.80;63.40;;;;;;5046430;28;20265;-69
2023/02/01 00:18:49;;;;;;;6.93;1.97;;;25.70;63.90;;;;;;5051157;28;20660;-72
2023/02/01 00:21:19;;;;;;;8.93;1.80;;;26.00;63.00;;;;;;5051085;28;20210;-75
2023/02/01 00:23:47;;;;;;;6.03;1.40;;;25.80;62.70;;;;;;5049497;28;20801;-72
2023/02/01 00:26:41;;;;;;;6.57;1.90;;;25.70;63.50;;;;;;5048392;28;20266;-73
2023/02/01 00:29:13;;;;;;;8.87;2.13;;;25.70;62.90;;;;;;5048336;28;20191;-74
2023/02/01 00:31:42;;;;;;;6.50;1.90;;;25.50;64.30;;;;;;5047056;28;20210;-73
2023/02/01 00:34:13;;;;;;;5.53;1.60;;;25.50;64.90;;;;;;5050437;28;20238;-73
2023/02/01 00:36:41;;;;;;;5.37;1.97;;;25.50;65.00;;;;;;5050625;28;20588;-74
2023/02/01 00:39:09;;;;;;;5.40;1.60;;;25.50;64.60;;;;;;5051015;28;20668;-71
2023/02/01 00:41:36;;;;;;;3.10;1.60;;;25.30;65.10;;;;;;5050669;28;20180;-72
2023/02/01 00:44:04;;;;;;;5.83;1.40;;;25.90;64.40;;;;;;5049749;28;20553;-75
2023/02/01 00:46:31;;;;;;;4.03;1.50;;;25.90;64.10;;;;;;5050695;28;20549;-73
2023/02/01 00:48:59;;;;;;;8.60;1.93;;;25.50;63.80;;;;;;5050728;28;20203;-74
2023/02/01 00:51:29;;;;;;;7.53;1.80;;;25.50;64.30;;;;;;5049357;28;20279;-71
2023/02/01 00:53:57;;;;;;;5.70;1.40;;;25.70;64.40;;;;;;5049516;28;20246;-71
2023/02/01 00:56:27;;;;;;;5.60;1.43;;;26.00;63.70;;;;;;5049262;28;20267;-72
2023/02/01 00:58:54;;;;;;;10.30;1.83;;;26.40;62.90;;;;;;5043603;28;20218;-72
2023/02/01 01:01:24;;;;;;;4.10;1.90;;;26.60;62.90;;;;;;5046939;28;20176;-74
2023/02/01 01:03:56;;;;;;;7.87;1.50;;;26.90;61.80;;;;;;5048420;28;20682;-70
2023/02/01 01:06:29;;;;;;;3.63;1.20;;;27.10;60.30;;;;;;5050419;28;20184;-74
2023/02/01 01:08:58;;;;;;;3.70;0.93;;;27.20;59.80;;;;;;5050548;28;20184;-72
2023/02/01 01:11:28;;;;;;;5.90;1.23;;;27.30;59.60;;;;;;5051294;28;20568;-75
2023/02/01 01:13:57;;;;;;;5.30;1.30;;;27.40;58.10;;;;;;5052625;28;20207;-70
2023/02/01 01:16:26;;;;;;;3.70;0.90;;;27.30;59.60;;;;;;5053546;28;20238;-74
2023/02/01 01:18:54;;;;;;;4.23;1.00;;;27.40;58.10;;;;;;5055366;28;20655;-73
2023/02/01 01:21:22;;;;;;;3.60;1.37;;;27.50;58.20;;;;;;5053002;28;20249;-74
2023/02/01 01:23:49;;;;;;;3.13;1.00;;;27.70;58.20;;;;;;5053530;28;20202;-73
2023/02/01 01:26:22;;;;;;;2.87;1.03;;;27.80;57.50;;;;;;5053549;28;20192;-74
2023/02/01 01:28:50;;;;;;;3.57;0.93;;;27.90;56.80;;;;;;5052552;28;20270;-73
2023/02/01 01:31:19;;;;;;;4.80;1.30;;;28.30;55.70;;;;;;5053125;28;20192;-75
2023/02/01 01:33:50;;;;;;;4.40;1.20;;;28.40;55.20;;;;;;5052440;28;20223;-72
2023/02/01 01:36:17;;;;;;;2.90;1.20;;;27.90;55.40;;;;;;5052655;28;20180;-73
2023/02/01 01:38:49;;;;;;;2.47;1.10;;;28.00;56.40;;;;;;5053618;28;20306;-74
2023/02/01 01:41:36;;;;;;;4.23;1.10;;;28.20;55.60;;;;;;5053740;28;20642;-72
2023/02/01 01:44:41;;;;;;;3.33;1.00;;;28.20;55.10;;;;;;5053309;28;20191;-77
2023/02/01 01:47:09;;;;;;;3.17;1.40;;;28.30;55.20;;;;;;5066035;28;20203;-76
2023/02/01 01:49:42;;;;;;;6.07;1.10;;;28.40;55.30;;;;;;5053346;28;20184;-75
2023/02/01 01:52:13;;;;;;;4.55;0.80;;;28.30;55.10;;;;;;5051400;28;20238;-72
2023/02/01 01:54:49;;;;;;;6.90;1.30;;;28.30;54.60;;;;;;5053675;28;20231;-71
2023/02/01 01:57:23;;;;;;;4.17;1.93;;;28.40;54.90;;;;;;5051782;28;20676;-72
2023/02/01 02:00:08;;;;;;;3.50;1.23;;;28.30;55.90;;;;;;5053383;28;20222;-71
2023/02/01 02:02:44;;;;;;;3.47;1.40;;;28.40;54.70;;;;;;5051496;28;20176;-73
2023/02/01 02:05:30;;;;;;;;;;;;;;;;;;;;;
2023/02/01 02:08:12;;;;;;;5.17;1.40;;;28.60;54.90;;;;;;5051494;28;20191;-75
2023/02/01 02:13:44;;;;;;;5.27;1.33;;;28.80;55.20;;;;;;5053051;28;20281;-74
2023/02/01 02:16:36;;;;;;;3.80;1.23;;;29.00;55.10;;;;;;5051167;28;20203;-73
2023/02/01 02:19:37;;;;;;;5.07;1.33;;;29.20;54.20;;;;;;5050918;28;20180;-76
2023/02/01 02:22:46;;;;;;;3.97;1.10;;;29.30;53.70;;;;;;5047343;28;20171;-70
2023/02/01 02:25:44;;;;;;;5.43;1.63;;;28.90;54.80;;;;;;5052397;28;20242;-72
2023/02/01 02:28:29;;;;;;;4.07;1.43;;;29.30;54.60;;;;;;5053072;28;20224;-72
2023/02/01 02:31:33;;;;;;;4.47;1.50;;;29.30;54.10;;;;;;5051626;28;20210;-68
2023/02/01 02:34:13;;;;;;;5.37;1.13;;;29.10;54.60;;;;;;5051208;28;20299;-68
2023/02/01 02:36:53;;;;;;;4.67;1.33;;;29.20;54.60;;;;;;5052560;28;20199;-68
2023/02/01 02:39:38;;;;;;;3.93;1.50;;;29.40;53.50;;;;;;5051751;28;20210;-68
2023/02/01 02:48:54;;;;;;;5.50;1.30;;;28.60;54.80;;;;;;5052669;28;20190;-69
2023/02/01 03:05:32;;;;;;;5.38;1.23;;;30.20;50.30;;;;;;5051029;28;20202;-72
2023/02/01 03:08:04;;;;;;;6.10;1.70;;;30.50;49.60;;;;;;5049843;28;20183;-74
2023/02/01 03:10:58;;;;;;;4.60;1.20;;;30.10;49.40;;;;;;5051717;28;20207;-71
2023/02/01 03:13:46;;;;;;;3.93;1.40;;;30.60;49.10;;;;;;5051349;28;20226;-72
2023/02/01 03:16:27;;;;;;;2.47;1.20;;;30.70;48.70;;;;;;5048888;28;20673;-71
2023/02/01 03:19:07;;;;;;;4.07;1.27;;;30.80;48.90;;;;;;5051707;28;20261;-71
2023/02/01 03:21:45;;;;;;;5.53;1.23;;;30.80;49.10;;;;;;5051564;28;20219;-73
2023/02/01 03:24:33;;;;;;;7.55;1.50;;;31.30;48.10;;;;;;5052010;28;20175;-73
2023/02/01 03:27:32;;;;;;;5.05;1.23;;;31.60;47.20;;;;;;5052032;28;20263;-73
2023/02/01 03:30:05;;;;;;;6.95;1.27;;;31.40;47.70;;;;;;5051037;28;20179;-72
2023/02/01 03:32:57;;;;;;;5.07;1.30;;;31.10;48.40;;;;;;5051339;28;20200;-73
2023/02/01 03:35:40;;;;;;;4.75;1.40;;;31.30;49.10;;;;;;5048106;28;20214;-73
2023/02/01 03:38:29;;;;;;;4.70;1.30;;;31.60;47.80;;;;;;5051647;28;20269;-71
2023/02/01 03:41:08;;;;;;;5.38;1.27;;;31.40;48.10;;;;;;5051569;28;20198;-72
2023/02/01 03:43:46;;;;;;;4.45;1.30;;;31.70;47.60;;;;;;5049120;28;20718;-72
2023/02/01 03:46:43;;;;;;;3.63;1.45;;;31.40;48.40;;;;;;5049793;28;20237;-71
2023/02/01 03:49:16;;;;;;;4.25;1.30;;;31.80;47.90;;;;;;5048128;28;20188;-71
2023/02/01 03:51:44;;;;;;;6.30;1.60;;;31.70;48.00;;;;;;5050048;28;20233;-72
2023/02/01 03:54:15;;;;;;;5.65;1.52;;;31.20;49.30;;;;;;5050920;28;20227;-71
2023/02/01 03:56:45;;;;;;;3.83;1.38;;;31.40;49.20;;;;;;5050281;28;20180;-72
2023/02/01 03:59:13;;;;;;;5.10;1.38;;;31.40;48.80;;;;;;5050040;28;20179;-71
2023/02/01 04:01:41;;;;;;;3.88;1.25;;;30.70;50.50;;;;;;5050132;28;20195;-66
2023/02/01 04:04:09;;;;;;;8.98;1.65;;;30.70;50.90;;;;;;5049070;28;20167;-68
2023/02/01 04:06:36;;;;;;;4.90;1.83;;;31.30;50.50;;;;;;5050243;28;20189;-66
2023/02/01 04:09:04;;;;;;;9.65;1.50;;;31.40;48.40;;;;;;5050832;28;20199;-68
2023/02/01 04:11:31;;;;;;;6.43;1.80;;;30.80;50.30;;;;;;5050677;28;20188;-68
2023/02/01 04:14:03;;;;;;;8.43;1.92;;;30.40;51.70;;;;;;5051058;28;20269;-68
2023/02/01 04:16:32;;;;;;;11.00;2.00;;;30.70;51.80;;;;;;5050511;28;20615;-68
2023/02/01 04:18:59;;;;;;;6.60;1.52;;;30.50;51.50;;;;;;5048608;28;20186;-70
2023/02/01 04:21:27;;;;;;;5.93;1.40;;;30.50;52.40;;;;;;5050472;28;20176;-72
2023/02/01 04:23:55;;;;;;;3.90;1.20;;;31.30;49.90;;;;;;5053088;28;20184;-68
2023/02/01 04:26:22;;;;;;;9.32;1.40;;;31.50;48.30;;;;;;5050772;28;20176;-71
2023/02/01 04:28:50;;;;;;;2.90;1.10;;;31.30;49.50;;;;;;5047091;28;20232;-73
2023/02/01 04:31:25;;;;;;;6.82;1.20;;;31.60;48.60;;;;;;5045837;28;20187;-71
2023/02/01 04:33:53;;;;;;;3.15;1.58;;;32.00;47.60;;;;;;5050810;28;20607;-68
2023/02/01 04:36:22;;;;;;;5.53;1.40;;;32.00;48.20;;;;;;5047602;28;20184;-72
2023/02/01 04:38:50;;;;;;;4.03;1.20;;;31.80;48.20;;;;;;5049335;28;20230;-72
2023/02/01 04:41:22;;;;;;;6.38;1.30;;;31.70;48.30;;;;;;5049819;28;20716;-70
2023/02/01 04:43:52;;;;;;;3.25;1.20;;;31.90;47.00;;;;;;5050780;28;20302;-73
2023/02/01 04:46:20;;;;;;;4.30;1.20;;;32.00;46.10;;;;;;5048831;28;20175;-68
2023/02/01 04:48:47;;;;;;;3.97;1.27;;;31.60;47.30;;;;;;5054496;28;20322;-72
2023/02/01 04:51:15;;;;;;;6.72;1.52;;;32.00;47.10;;;;;;5054036;28;20639;-72
2023/02/01 04:53:42;;;;;;;6.47;1.25;;;31.60;47.70;;;;;;5054051;28;20270;-70
2023/02/01 04:56:09;;;;;;;5.03;1.30;;;31.40;47.20;;;;;;5054473;28;20714;-70
2023/02/01 04:58:37;;;;;;;3.35;1.13;;;31.10;47.50;;;;;;5054621;28;20227;-67
2023/02/01 05:01:05;;;;;;;3.92;0.98;;;31.30;46.20;;;;;;5053108;28;20204;-70
2023/02/01 05:03:33;;;;;;;6.15;1.38;;;31.60;45.60;;;;;;5053464;28;20187;-69
2023/02/01 05:06:01;;;;;;;3.95;1.40;;;31.70;46.40;;;;;;5054025;28;20179;-67
2023/02/01 05:08:29;;;;;;;4.15;1.45;;;32.50;46.10;;;;;;5051939;28;20270;-69
2023/02/01 05:10:57;;;;;;;3.33;1.20;;;32.90;44.50;;;;;;5055822;28;20220;-72
2023/02/01 05:16:09;;;;;;;4.85;1.48;;;32.40;44.20;;;;;;5053648;28;20191;-72
2023/02/01 05:18:36;;;;;;;2.90;1.15;;;32.00;46.80;;;;;;5057670;28;20189;-69
2023/02/01 05:21:04;;;;;;;5.68;1.20;;;31.30;47.70;;;;;;5057907;28;20551;-71
2023/02/01 05:23:31;;;;;;;3.80;1.55;;;31.40;48.70;;;;;;5054324;28;20195;-72
2023/02/01 05:26:02;;;;;;;5.22;1.58;;;31.90;47.30;;;;;;5055245;28;20187;-74
2023/02/01 05:28:30;;;;;;;6.15;1.40;;;32.30;45.80;;;;;;5053549;28;20184;-72
2023/02/01 05:30:57;;;;;;;4.97;1.27;;;33.40;43.60;;;;;;5052083;28;20569;-67
2023/02/01 05:33:24;;;;;;;5.50;1.30;;;33.50;43.60;;;;;;5053052;28;20199;-73
2023/02/01 05:35:52;;;;;;;5.90;1.50;;;33.70;43.30;;;;;;5055555;28;20230;-70
2023/02/01 05:38:19;;;;;;;4.72;1.48;;;33.70;43.50;;;;;;5055851;28;20209;-71
2023/02/01 05:40:49;;;;;;;3.47;1.20;;;32.40;46.00;;;;;;5056003;28;20168;-73
2023/02/01 05:43:16;;;;;;;4.40;1.38;;;32.40;45.50;;;;;;5055661;28;20251;-73
2023/02/01 05:45:44;;;;;;;7.22;1.80;;;32.30;46.90;;;;;;5053136;28;20186;-72
2023/02/01 05:48:11;;;;;;;6.05;1.80;;;32.30;46.80;;;;;;5053738;28;20171;-74
2023/02/01 05:50:38;;;;;;;4.78;1.48;;;32.80;45.70;;;;;;5053659;28;20669;-73
2023/02/01 05:53:06;;;;;;;5.22;1.20;;;31.00;49.00;;;;;;5049385;28;20365;-71
2023/02/01 05:55:33;;;;;;;5.50;1.73;;;30.70;50.90;;;;;;5053031;28;20241;-73
2023/02/01 05:58:01;;;;;;;4.75;1.38;;;31.30;49.40;;;;;;5052729;28;20271;-74
2023/02/01 06:00:28;;;;;;;6.10;1.50;;;31.40;48.40;;;;;;5056402;28;20234;-73
2023/02/01 06:02:55;;;;;;;6.30;1.60;;;30.80;50.30;;;;;;5054230;28;20657;-73
2023/02/01 06:05:23;;;;;;;4.75;1.70;;;30.10;51.50;;;;;;5055610;28;20203;-73
2023/02/01 06:07:50;;;;;;;5.40;1.85;;;29.30;54.00;;;;;;5052986;28;20210;-73
2023/02/01 06:10:18;;;;;;;3.43;1.30;;;28.30;56.30;;;;;;5053415;28;20191;-75
2023/02/01 06:12:46;;;;;;;6.37;1.90;;;28.30;56.50;;;;;;5052697;28;20215;-74
2023/02/01 06:15:18;;;;;;;5.10;1.43;;;29.40;53.90;;;;;;5051694;28;20195;-71
2023/02/01 06:17:46;;;;;;;6.70;1.80;;;29.30;54.10;;;;;;5054731;28;20930;-74
2023/02/01 06:20:16;;;;;;;5.68;1.50;;;30.90;50.40;;;;;;5047565;28;20188;-70
2023/02/01 06:22:43;;;;;;;2.90;1.57;;;30.90;49.20;;;;;;5055217;28;20537;-73
2023/02/01 06:25:11;;;;;;;3.60;1.58;;;30.30;50.90;;;;;;5053510;28;20559;-69
2023/02/01 06:27:39;;;;;;;3.95;1.52;;;29.60;52.00;;;;;;5055239;28;20590;-72
2023/02/01 06:30:07;;;;;;;8.00;1.60;;;29.70;52.30;;;;;;5052025;28;20168;-69
2023/02/01 06:32:34;;;;;;;5.40;1.60;;;30.80;49.70;;;;;;5057207;28;20717;-69
2023/02/01 06:35:02;;;;;;;5.47;1.45;;;31.70;47.20;;;;;;5051738;28;20283;-70
2023/02/01 06:37:29;;;;;;;3.65;1.50;;;31.20;48.40;;;;;;5051529;28;20179;-71
2023/02/01 06:39:56;;;;;;;4.43;1.40;;;29.90;51.70;;;;;;5054126;28;20601;-68
2023/02/01 06:42:24;;;;;;;6.88;1.55;;;30.10;51.30;;;;;;5055943;28;20250;-68
2023/02/01 06:44:51;;;;;;;5.43;1.70;;;30.60;49.40;;;;;;5054297;28;20207;-70
2023/02/01 06:47:18;;;;;;;4.15;1.80;;;31.70;47.60;;;;;;5053637;28;20255;-69
2023/02/01 06:49:46;;;;;;;3.50;1.50;;;32.30;45.40;;;;;;5051399;28;20195;-70
2023/02/01 06:52:13;;;;;;;5.43;1.55;;;32.10;45.70;;;;;;5049964;28;20180;-68
2023/02/01 06:54:40;;;;;;;4.93;2.05;;;32.60;44.50;;;;;;5050695;28;20246;-68
2023/02/01 06:57:08;;;;;;;2.83;1.40;;;32.50;44.40;;;;;;5054825;28;21385;-69
2023/02/01 06:59:35;;;;;;;4.70;1.60;;;31.60;47.00;;;;;;5052903;28;20219;-70
2023/02/01 07:02:03;;;;;;;6.25;1.60;;;30.90;47.40;;;;;;5050568;28;20188;-70
2023/02/01 07:04:30;;;;;;;5.10;1.60;;;31.70;46.90;;;;;;5053481;28;20489;-72
2023/02/01 07:06:57;;;;;;;5.72;1.90;;;30.90;47.30;;;;;;5057482;28;20188;-67
2023/02/01 07:09:25;;;;;;;4.90;1.60;;;30.10;50.10;;;;;;5071599;28;20542;-72
2023/02/01 07:11:52;;;;;;;5.22;1.70;;;29.50;51.80;;;;;;5053503;28;20186;-73
2023/02/01 07:14:19;;;;;;;4.80;1.63;;;28.80;53.70;;;;;;5053719;28;20220;-71
2023/02/01 07:16:46;;;;;;;3.33;1.50;;;29.40;52.30;;;;;;5054113;28;20650;-68
2023/02/01 07:19:14;;;;;;;5.40;1.60;;;28.80;53.50;;;;;;5054440;28;20238;-67
2023/02/01 07:21:41;;;;;;;5.23;1.90;;;29.60;50.90;;;;;;5051540;28;20273;-69
2023/02/01 07:24:09;;;;;;;6.10;1.67;;;30.00;51.50;;;;;;5052576;28;20180;-69
2023/02/01 07:26:36;;;;;;;6.22;1.77;;;29.70;51.90;;;;;;5049934;28;20184;-68
2023/02/01 07:29:03;;;;;;;4.20;1.52;;;29.80;51.90;;;;;;5051952;28;20590;-69
2023/02/01 07:31:31;;;;;;;3.47;1.42;;;29.90;51.50;;;;;;5050897;28;20187;-68
2023/02/01 07:33:58;;;;;;;5.82;1.52;;;30.70;48.40;;;;;;5052165;28;20211;-71
2023/02/01 07:36:25;;;;;;;5.72;1.67;;;30.90;48.30;;;;;;5051146;28;20685;-69
2023/02/01 07:38:53;;;;;;;6.57;2.35;;;30.30;49.90;;;;;;5051209;28;20279;-72
2023/02/01 07:41:20;;;;;;;6.20;1.83;;;29.80;51.10;;;;;;5051178;28;20180;-74
2023/02/01 07:43:48;;;;;;;5.47;1.73;;;29.60;51.20;;;;;;5050650;28;20176;-73
2023/02/01 07:46:15;;;;;;;5.90;2.08;;;29.70;50.60;;;;;;5050065;28;20650;-72
2023/02/01 07:48:43;;;;;;;6.47;1.97;;;29.10;52.70;;;;;;5050741;28;20213;-69
2023/02/01 07:51:13;;;;;;;7.73;2.10;;;28.20;54.60;;;;;;5051492;28;20183;-69
2023/02/01 07:53:41;;;;;;;4.67;1.60;;;28.20;55.20;;;;;;5051628;28;20241;-71
2023/02/01 07:56:20;;;;;;;5.23;2.10;;;27.80;55.70;;;;;;5051399;28;20199;-69
2023/02/01 07:58:55;;;;;;;5.23;1.63;;;27.00;58.30;;;;;;5051241;28;20658;-70
2023/02/01 08:01:25;;;;;;;6.17;1.40;;;26.70;59.70;;;;;;5050463;28;20242;-71
2023/02/01 08:04:01;;;;;;;6.00;2.10;;;26.30;60.30;;;;;;5051498;28;20179;-72
2023/02/01 08:06:33;;;;;;;4.30;1.60;;;26.30;60.20;;;;;;5050222;28;20187;-73
2023/02/01 08:09:01;;;;;;;6.00;1.60;;;26.20;60.80;;;;;;5045478;28;20214;-72
2023/02/01 08:11:28;;;;;;;5.17;1.90;;;26.10;61.60;;;;;;5050641;28;20216;-70
2023/02/01 08:13:56;;;;;;;4.23;1.77;;;26.10;61.60;;;;;;5042981;28;20246;-67
2023/02/01 08:16:25;;;;;;;8.30;2.00;;;25.90;61.20;;;;;;5049414;28;20182;-70
2023/02/01 08:18:54;;;;;;;6.60;2.20;;;25.80;62.30;;;;;;5047728;28;20180;-72
2023/02/01 08:21:24;;;;;;;8.03;1.97;;;25.70;62.50;;;;;;5051738;28;20525;-71
2023/02/01 08:23:52;;;;;;;4.53;1.67;;;25.60;62.80;;;;;;5057248;28;20266;-71
2023/02/01 08:26:25;;;;;;;7.33;2.17;;;25.60;63.20;;;;;;5055304;28;20167;-72
2023/02/01 08:28:56;;;;;;;6.60;1.73;;;25.30;63.80;;;;;;5057034;28;20229;-68
2023/02/01 08:31:25;;;;;;;8.87;1.97;;;25.30;63.20;;;;;;5056273;28;20269;-68
2023/02/01 08:33:55;;;;;;;9.70;2.20;;;25.30;63.10;;;;;;5054885;28;20303;-70
2023/02/01 08:36:24;;;;;;;5.07;1.60;;;25.30;63.60;;;;;;5055894;28;20187;-68
2023/02/01 08:38:51;;;;;;;7.67;1.83;;;25.30;63.80;;;;;;5056679;28;20208;-69
2023/02/01 08:41:23;;;;;;;3.33;1.70;;;25.30;63.40;;;;;;5057144;28;20176;-70
2023/02/01 08:43:51;;;;;;;9.57;1.63;;;25.30;63.40;;;;;;5057238;28;20278;-73
2023/02/01 08:46:18;;;;;;;4.30;1.90;;;25.30;63.80;;;;;;5055059;28;20176;-68
2023/02/01 08:48:47;;;;;;;8.37;2.27;;;25.10;64.30;;;;;;5056811;28;20183;-71
2023/02/01 08:51:16;;;;;;;6.83;2.10;;;25.00;64.90;;;;;;5056595;28;20710;-68
2023/02/01 08:53:43;;;;;;;6.17;1.90;;;25.00;65.00;;;;;;5056674;28;20234;-67
2023/02/01 08:56:13;;;;;;;5.97;2.00;;;25.00;65.40;;;;;;5056616;28;20184;-70
2023/02/01 08:58:41;;;;;;;6.13;2.00;;;24.90;65.60;;;;;;5056078;28;20191;-73
2023/02/01 09:01:12;;;;;;;9.43;2.43;;;25.00;65.50;;;;;;5055429;28;20211;-67
2023/02/01 09:03:40;;;;;;;7.30;1.90;;;25.00;65.70;;;;;;5056580;28;20187;-71
2023/02/01 09:06:10;;;;;;;5.40;1.97;;;25.00;65.80;;;;;;5057577;28;20204;-70
2023/02/01 09:08:39;;;;;;;6.47;2.33;;;24.80;66.50;;;;;;5056994;28;20193;-74
2023/02/01 09:11:14;;;;;;;5.33;1.80;;;24.90;66.30;;;;;;5055750;28;20254;-74
2023/02/01 09:13:42;;;;;;;9.17;1.67;;;24.90;66.50;;;;;;5055808;28;20576;-74
2023/02/01 09:16:09;;;;;;;6.13;1.80;;;24.80;67.30;;;;;;5055660;28;20208;-74
2023/02/01 09:18:37;;;;;;;6.00;2.10;;;24.90;67.30;;;;;;5056642;28;20192;-75
2023/02/01 09:21:08;;;;;;;10.23;2.20;;;24.90;67.50;;;;;;5054144;28;20274;-73
2023/02/01 09:23:36;;;;;;;8.23;2.00;;;24.80;68.20;;;;;;5056459;28;20262;-75
2023/02/01 09:26:05;;;;;;;4.83;1.90;;;24.70;68.90;;;;;;5056190;28;20191;-73
2023/02/01 09:28:32;;;;;;;7.63;2.00;;;24.70;69.30;;;;;;5055332;28;20274;-75
2023/02/01 09:31:01;;;;;;;9.60;2.07;;;24.50;70.30;;;;;;5056635;28;20180;-70
2023/02/01 09:33:29;;;;;;;7.30;2.10;;;24.50;70.70;;;;;;5053801;28;20200;-70
2023/02/01 09:35:58;;;;;;;7.97;2.10;;;24.50;71.10;;;;;;5050866;28;20196;-76
2023/02/01 09:38:27;;;;;;;7.77;2.17;;;24.50;71.30;;;;;;5053935;28;20191;-73
2023/02/01 09:40:55;;;;;;;8.07;2.13;;;24.50;71.60;;;;;;5053349;28;20278;-74
2023/02/01 09:43:56;;;;;;;8.10;1.70;;;24.50;71.70;;;;;;5052478;28;20191;-74
2023/02/01 09:46:34;;;;;;;10.73;2.57;;;24.50;72.20;;;;;;5052049;28;20598;-69
2023/02/01 09:49:21;;;;;;;7.77;2.17;;;24.50;72.50;;;;;;5051522;28;20191;-67
2023/02/01 09:51:51;;;;;;;6.67;2.23;;;24.50;72.70;;;;;;5052298;28;20187;-68
2023/02/01 09:54:29;;;;;;;10.17;2.47;;;24.50;72.70;;;;;;5053987;28;20314;-67
2023/02/01 09:57:06;;;;;;;7.73;2.33;;;24.60;72.80;;;;;;5053025;28;20206;-71
2023/02/01 09:59:44;;;;;;;11.13;2.47;;;24.50;73.30;;;;;;5051475;28;20188;-66
2023/02/01 10:02:27;;;;;;;8.53;2.23;;;24.60;73.40;;;;;;5052676;28;20184;-70
2023/02/01 10:05:01;;;;;;;14.93;2.53;;;24.50;73.60;;;;;;5050400;28;20187;-72
2023/02/01 10:08:01;;;;;;;6.70;2.20;;;24.50;73.60;;;;;;5052038;28;20176;-72
2023/02/01 10:10:32;;;;;;;11.33;2.60;;;24.50;73.90;;;;;;5052064;28;20187;-74
2023/02/01 10:13:21;;;;;;;15.43;2.40;;;24.50;73.70;;;;;;5050055;28;20712;-74
2023/02/01 10:16:10;;;;;;;7.13;2.30;;;24.40;74.20;;;;;;5051836;28;20662;-75
2023/02/01 10:19:10;;;;;;;7.43;2.07;;;24.40;74.40;;;;;;5052178;28;20570;-72
2023/02/01 10:21:43;;;;;;;9.97;2.70;;;24.40;74.20;;;;;;5046449;28;20661;-71
2023/02/01 10:24:21;;;;;;;7.70;2.53;;;24.40;74.40;;;;;;5048181;28;20603;-72
2023/02/01 10:27:07;;;;;;;13.23;2.73;;;24.40;74.30;;;;;;5053738;28;20171;-74
2023/02/01 10:29:40;;;;;;;8.90;2.40;;;24.30;74.60;;;;;;5080390;28;20207;-75
2023/02/01 10:32:34;;;;;;;8.20;2.40;;;24.30;74.80;;;;;;5053930;28;20175;-71
2023/02/01 10:35:18;;;;;;;10.27;2.60;;;24.30;74.70;;;;;;5051693;28;20199;-74
2023/02/01 10:37:46;;;;;;;7.33;2.30;;;24.30;74.60;;;;;;5054653;28;20261;-74
2023/02/01 10:40:23;;;;;;;8.87;2.33;;;24.20;74.60;;;;;;5055712;28;20634;-73
2023/02/01 10:42:54;;;;;;;7.03;2.53;;;24.10;74.60;;;;;;5054633;28;20571;-74
2023/02/01 10:45:25;;;;;;;7.73;2.60;;;24.20;74.70;;;;;;5051973;28;20702;-71
2023/02/01 10:47:56;;;;;;;11.03;2.40;;;24.10;74.80;;;;;;5055601;28;20172;-74
2023/02/01 10:50:52;;;;;;;8.80;2.40;;;24.10;75.00;;;;;;5056776;28;20176;-70
2023/02/01 10:53:33;;;;;;;11.23;2.73;;;24.20;75.00;;;;;;5052709;28;20293;-74
2023/02/01 10:56:08;;;;;;;6.30;2.33;;;24.10;75.00;;;;;;5052144;28;20613;-72
2023/02/01 10:58:43;;;;;;;6.50;2.20;;;24.10;74.60;;;;;;5053138;28;20645;-71
2023/02/01 11:01:20;;;;;;;12.57;2.40;;;24.00;75.10;;;;;;5053266;28;20180;-74
2023/02/01 11:03:56;;;;;;;9.23;2.40;;;24.00;75.00;;;;;;5054750;28;20176;-74
2023/02/01 11:06:29;;;;;;;6.30;2.50;;;24.00;74.90;;;;;;5055184;28;20184;-74
2023/02/01 11:09:01;;;;;;;11.03;2.93;;;23.90;75.00;;;;;;5052737;28;20259;-74
2023/02/01 11:11:29;;;;;;;9.13;2.30;;;23.90;75.00;;;;;;5052205;28;20310;-73
2023/02/01 11:14:14;;;;;;;11.37;2.43;;;23.90;75.30;;;;;;5051426;28;20302;-74
2023/02/01 11:16:46;;;;;;;7.57;2.70;;;23.80;75.70;;;;;;5051692;28;20211;-75
2023/02/01 11:19:17;;;;;;;14.27;2.73;;;23.80;75.80;;;;;;5045843;28;20265;-71
2023/02/01 11:21:45;;;;;;;8.67;2.20;;;23.80;75.90;;;;;;5052219;28;20202;-73
2023/02/01 11:24:28;;;;;;;4.73;2.10;;;23.80;76.00;;;;;;5055423;28;20172;-73
2023/02/01 11:26:57;;;;;;;7.73;2.40;;;23.80;76.00;;;;;;5054829;28;20183;-74
2023/02/01 11:29:29;;;;;;;13.50;2.53;;;23.80;76.20;;;;;;5056220;28;20187;-71
2023/02/01 11:32:00;;;;;;;9.83;2.27;;;23.70;76.40;;;;;;5054112;28;20183;-72
2023/02/01 11:34:41;;;;;;;8.30;2.20;;;23.70;76.40;;;;;;5051417;28;20601;-72
2023/02/01 11:37:26;;;;;;;8.87;2.30;;;23.70;76.50;;;;;;5048387;28;20544;-68
2023/02/01 11:40:01;;;;;;;7.60;2.33;;;23.70;76.60;;;;;;5051953;28;20673;-73
2023/02/01 11:42:30;;;;;;;10.50;2.43;;;23.70;76.60;;;;;;5051967;28;20176;-73
2023/02/01 11:45:30;;;;;;;10.23;2.63;;;23.60;76.80;;;;;;5055452;28;20187;-67
2023/02/01 11:48:00;;;;;;;11.00;2.60;;;23.70;76.70;;;;;;5023504;28;20662;-68
2023/02/01 11:51:04;;;;;;;7.97;2.07;;;23.60;76.80;;;;;;5049595;28;20207;-69
2023/02/01 11:53:37;;;;;;;9.73;2.53;;;23.60;76.90;;;;;;5051767;28;20259;-69
2023/02/01 11:56:16;;;;;;;6.10;2.00;;;23.70;76.90;;;;;;5051914;28;20179;-68
2023/02/01 11:58:52;;;;;;;5.07;2.00;;;23.80;76.80;;;;;;5052792;28;20183;-70
2023/02/01 12:01:45;;;;;;;9.37;2.70;;;23.80;76.60;;;;;;5052971;28;20188;-68
2023/02/01 12:04:51;;;;;;;6.80;2.33;;;23.80;76.40;;;;;;5054103;28;20199;-67
2023/02/01 12:07:53;;;;;;;10.03;2.57;;;23.90;76.40;;;;;;5055450;28;20187;-67
2023/02/01 12:10:48;;;;;;;8.50;2.80;;;23.80;76.50;;;;;;5027889;28;20539;-73
2023/02/01 12:13:24;;;;;;;7.47;2.27;;;23.90;76.60;;;;;;5050117;28;20211;-71
2023/02/01 12:16:11;;;;;;;8.23;2.50;;;23.80;76.50;;;;;;5051609;28;20577;-67
2023/02/01 12:19:05;;;;;;;13.17;2.40;;;23.80;76.50;;;;;;5046781;28;20214;-67
2023/02/01 12:21:39;;;;;;;9.10;2.67;;;23.80;76.70;;;;;;5052295;28;20191;-69
2023/02/01 12:24:12;;;;;;;7.83;2.40;;;23.80;76.50;;;;;;5054335;28;20199;-69
2023/02/01 12:26:51;;;;;;;15.30;3.10;;;23.80;76.40;;;;;;5054488;28;20184;-73
2023/02/01 12:30:01;;;;;;;10.10;2.70;;;23.80;76.50;;;;;;5058624;28;20866;-73
2023/02/01 12:32:46;;;;;;;12.00;2.37;;;23.80;76.10;;;;;;5044707;28;20217;-74
2023/02/01 12:35:42;;;;;;;6.70;2.17;;;23.80;76.00;;;;;;5055372;28;20577;-71
2023/02/01 12:38:27;;;;;;;7.27;2.27;;;23.80;75.70;;;;;;5049907;28;20183;-75
2023/02/01 12:40:54;;;;;;;9.50;2.20;;;23.90;75.70;;;;;;5052705;28;20194;-74
2023/02/01 12:43:45;;;;;;;13.77;2.67;;;23.90;75.40;;;;;;5056033;28;20179;-73
2023/02/01 12:46:50;;;;;;;6.73;2.30;;;23.90;75.50;;;;;;5052309;28;20649;-74
2023/02/01 12:49:25;;;;;;;8.80;2.30;;;23.90;75.70;;;;;;5053086;28;20187;-72
2023/02/01 12:51:59;;;;;;;8.53;2.57;;;24.00;75.70;;;;;;5055767;28;20556;-75
2023/02/01 12:54:43;;;;;;;11.50;2.43;;;24.00;75.30;;;;;;5053872;28;20688;-75
2023/02/01 12:57:34;;;;;;;12.97;2.40;;;24.00;75.40;;;;;;5056605;28;20696;-74
2023/02/01 13:00:25;;;;;;;6.77;2.40;;;23.90;75.60;;;;;;5055350;28;20219;-75
2023/02/01 13:03:14;;;;;;;11.33;2.80;;;23.90;75.60;;;;;;5054312;28;20547;-74
2023/02/01 13:06:02;;;;;;;8.77;2.10;;;23.80;75.80;;;;;;5050511;28;20168;-74
2023/02/01 13:08:37;;;;;;;10.70;2.43;;;23.80;76.00;;;;;;5053192;28;20196;-74
2023/02/01 13:11:31;;;;;;;7.47;2.40;;;23.80;76.00;;;;;;5048714;28;20175;-74
2023/02/01 13:14:06;;;;;;;8.70;2.57;;;23.80;76.20;;;;;;5055888;28;20374;-73
2023/02/01 13:16:42;;;;;;;11.80;2.83;;;23.80;76.10;;;;;;5053262;28;20535;-74
2023/02/01 13:19:30;;;;;;;11.27;2.70;;;23.80;76.00;;;;;;5055634;28;20231;-74
2023/02/01 13:22:07;;;;;;;9.53;2.50;;;23.80;76.10;;;;;;5057419;28;20188;-74
2023/02/01 13:24:45;;;;;;;8.27;2.23;;;23.80;76.10;;;;;;5057195;28;20171;-74
2023/02/01 13:27:15;;;;;;;5.70;2.27;;;23.80;76.00;;;;;;5052318;28;20222;-74
2023/02/01 13:30:02;;;;;;;8.20;2.83;;;23.90;75.90;;;;;;5053131;28;20657;-74
2023/02/01 13:32:40;;;;;;;13.17;2.40;;;23.80;75.70;;;;;;5050841;28;20279;-74
2023/02/01 13:35:39;;;;;;;5.97;2.10;;;23.80;75.90;;;;;;5053842;28;20195;-74
2023/02/01 13:38:20;;;;;;;4.53;1.83;;;23.80;76.00;;;;;;5039409;28;20269;-75
2023/02/01 13:40:47;;;;;;;8.17;2.00;;;23.80;75.80;;;;;;5052985;28;20188;-74
2023/02/01 13:43:27;;;;;;;10.97;2.43;;;23.90;75.80;;;;;;5052623;28;20172;-73
2023/02/01 13:46:02;;;;;;;10.40;2.60;;;23.80;75.70;;;;;;5052095;28;20180;-75
2023/02/01 13:48:45;;;;;;;9.07;2.73;;;23.80;75.30;;;;;;5052000;28;20219;-74
2023/02/01 13:51:14;;;;;;;5.87;1.90;;;23.80;75.40;;;;;;5048793;28;20188;-76